Terminal Aerodrome Forecast
Issued by NWS

Home | Current Version | Previous Version | Text Only | Print | Product List | Glossary Off
Versions: 1 2 3 4 5 6 7 8 9 10 11 12

000
FTUS43 KMPX 300520
TAFRNH
TAF
KRNH 300520Z 3006/0106 06005KT P6SM SKC
     FM301200 06008KT P6SM SCT250
     FM301500 06012G20KT P6SM SCT050 OVC200
     FM010100 04008KT P6SM SCT050 OVC200=

USA.gov is the U.S. government's official web portal to all federal, state and local government web resources and services.